Time;durP1;ratioP1;P1;durP2;ratioP2;P2;SDS_P1;SDS_P2;PMS_P1;PMS_P2;Temp;Humidity;BMP_temperature;BMP_pressure;BME280_temperature;BME280_humidity;BME280_pressure;Samples;Min_cycle;Max_cycle;Signal;HPM_P1;HPM_P2
2021/12/20 00:01:38;;;;;;;40.35;17.17;;;3.50;99.90;;;;;;5090742;28;20555;-60
2021/12/20 00:04:04;;;;;;;52.55;19.92;;;3.40;99.90;;;;;;5091078;28;20188;-60
2021/12/20 00:06:29;;;;;;;31.40;12.85;;;3.40;99.90;;;;;;5090700;28;20656;-60
2021/12/20 00:08:55;;;;;;;32.88;14.98;;;3.40;99.90;;;;;;5090436;28;20548;-60
2021/12/20 00:11:20;;;;;;;30.95;13.30;;;3.40;99.90;;;;;;5092963;28;20180;-60
2021/12/20 00:13:46;;;;;;;44.00;16.70;;;3.40;99.90;;;;;;5090662;28;20211;-60
2021/12/20 00:16:11;;;;;;;34.47;14.60;;;3.40;99.90;;;;;;5072904;28;20184;-61
2021/12/20 00:18:37;;;;;;;27.52;12.35;;;3.40;99.90;;;;;;5070837;28;20270;-60
2021/12/20 00:21:03;;;;;;;26.88;11.40;;;3.40;99.90;;;;;;5079803;28;20227;-60
2021/12/20 00:23:28;;;;;;;30.55;14.18;;;3.40;99.90;;;;;;5090137;28;20654;-60
2021/12/20 00:25:54;;;;;;;30.35;12.60;;;3.30;99.90;;;;;;5077194;28;20523;-60
2021/12/20 00:28:20;;;;;;;27.38;12.20;;;3.30;99.90;;;;;;5071142;28;20169;-60
2021/12/20 00:30:47;;;;;;;24.27;11.27;;;3.20;99.90;;;;;;5088994;28;20181;-60
2021/12/20 00:33:13;;;;;;;25.88;12.10;;;3.20;99.90;;;;;;5086502;28;20545;-60
2021/12/20 00:35:39;;;;;;;25.55;11.35;;;3.20;99.90;;;;;;5078557;28;20188;-60
2021/12/20 00:40:50;;;;;;;26.20;11.57;;;3.20;99.90;;;;;;5094023;28;20236;-60
2021/12/20 00:43:16;;;;;;;28.20;12.48;;;3.30;99.90;;;;;;5079036;28;20185;-60
2021/12/20 00:45:42;;;;;;;25.88;11.75;;;3.30;99.90;;;;;;5088271;28;20183;-60
2021/12/20 00:48:07;;;;;;;26.77;11.10;;;3.40;99.90;;;;;;5094862;28;20199;-60
2021/12/20 00:50:33;;;;;;;24.92;11.05;;;3.40;99.90;;;;;;5093756;28;20647;-60
2021/12/20 00:52:59;;;;;;;26.52;11.85;;;3.40;99.90;;;;;;5094815;28;20164;-60
2021/12/20 00:55:27;;;;;;;25.52;11.70;;;3.30;99.90;;;;;;5093741;28;20630;-60
2021/12/20 00:57:56;;;;;;;27.95;11.65;;;3.20;99.90;;;;;;5094241;28;20694;-60
2021/12/20 01:00:28;;;;;;;29.83;12.93;;;3.20;99.90;;;;;;5093765;28;20255;-60
2021/12/20 01:02:55;;;;;;;27.73;11.57;;;3.20;99.90;;;;;;5093962;28;20199;-60
2021/12/20 01:05:22;;;;;;;26.63;11.50;;;3.20;99.90;;;;;;5093781;28;20194;-60
2021/12/20 01:07:48;;;;;;;25.60;11.80;;;3.30;99.90;;;;;;5094387;28;20563;-57
2021/12/20 01:10:13;;;;;;;26.37;11.97;;;3.30;99.90;;;;;;5093749;28;20234;-59
2021/12/20 01:12:46;;;;;;;26.00;11.77;;;3.30;99.90;;;;;;5093532;28;20620;-59
2021/12/20 01:15:16;;;;;;;25.05;11.50;;;3.30;99.90;;;;;;5093872;28;20588;-59
2021/12/20 01:17:42;;;;;;;26.60;11.88;;;3.30;99.90;;;;;;5073858;28;20296;-59
2021/12/20 01:20:08;;;;;;;23.90;11.23;;;3.30;99.90;;;;;;5085395;28;20271;-59
2021/12/20 01:22:34;;;;;;;25.98;12.82;;;3.30;99.90;;;;;;5093260;28;20176;-59
2021/12/20 01:24:59;;;;;;;23.08;11.23;;;3.30;99.90;;;;;;5093953;28;20187;-58
2021/12/20 01:27:25;;;;;;;26.00;11.68;;;3.40;99.90;;;;;;5101413;28;20534;-59
2021/12/20 01:29:51;;;;;;;29.17;11.77;;;3.40;99.90;;;;;;5094951;28;20631;-59
2021/12/20 01:32:16;;;;;;;25.00;11.52;;;3.40;99.90;;;;;;5093462;28;20628;-59
2021/12/20 01:34:42;;;;;;;27.63;11.82;;;3.40;99.90;;;;;;5093751;28;20172;-59
2021/12/20 01:37:07;;;;;;;29.90;12.43;;;3.40;99.90;;;;;;5093133;28;20184;-59
2021/12/20 01:39:33;;;;;;;25.80;11.95;;;3.40;99.90;;;;;;5093368;28;20720;-59
2021/12/20 01:42:00;;;;;;;24.27;10.73;;;3.40;99.90;;;;;;5093496;28;20254;-59
2021/12/20 01:44:25;;;;;;;24.38;11.23;;;3.40;99.90;;;;;;5092588;28;20185;-59
2021/12/20 01:46:51;;;;;;;26.23;11.73;;;3.50;99.90;;;;;;5093649;28;20176;-59
2021/12/20 01:49:18;;;;;;;24.13;11.30;;;3.50;99.90;;;;;;5092018;28;20602;-59
2021/12/20 01:51:51;;;;;;;25.80;11.15;;;3.50;99.90;;;;;;5093399;28;20199;-59
2021/12/20 01:54:17;;;;;;;25.08;11.25;;;3.50;99.90;;;;;;5092991;28;20191;-59
2021/12/20 01:56:45;;;;;;;26.23;12.15;;;3.50;99.90;;;;;;5092661;28;20216;-59
2021/12/20 01:59:11;;;;;;;25.77;11.07;;;3.50;99.90;;;;;;5092608;28;20212;-59
2021/12/20 02:01:37;;;;;;;20.58;10.35;;;3.50;99.90;;;;;;5092878;28;20186;-59
2021/12/20 02:04:07;;;;;;;21.55;11.18;;;3.60;99.90;;;;;;5093416;28;20172;-59
2021/12/20 02:06:40;;;;;;;21.65;10.43;;;3.60;99.90;;;;;;5092900;28;20187;-59
2021/12/20 02:09:11;;;;;;;22.08;10.63;;;3.70;99.90;;;;;;5092764;28;20690;-59
2021/12/20 02:11:39;;;;;;;24.77;12.05;;;3.70;99.90;;;;;;5092562;28;20176;-60
2021/12/20 02:14:06;;;;;;;24.63;11.35;;;3.70;99.90;;;;;;5092971;28;20181;-59
2021/12/20 02:16:33;;;;;;;21.05;10.38;;;3.70;99.90;;;;;;5092815;28;20172;-59
2021/12/20 02:19:11;;;;;;;23.85;10.70;;;3.70;99.90;;;;;;5092500;28;20679;-60
2021/12/20 02:21:38;;;;;;;21.10;10.60;;;3.70;99.90;;;;;;5092350;28;20642;-59
2021/12/20 02:24:04;;;;;;;21.35;10.20;;;3.80;99.90;;;;;;5091504;28;20636;-59
2021/12/20 02:26:30;;;;;;;22.10;10.45;;;3.80;99.90;;;;;;5091116;28;20704;-59
2021/12/20 02:29:00;;;;;;;22.70;11.20;;;3.80;99.90;;;;;;5092011;28;20180;-59
2021/12/20 02:37:13;;;;;;;22.23;10.95;;;3.80;99.90;;;;;;5089616;28;20210;-59
2021/12/20 02:39:39;;;;;;;22.00;10.05;;;3.70;99.90;;;;;;5085046;28;20211;-59
2021/12/20 02:42:05;;;;;;;18.83;9.82;;;3.80;99.90;;;;;;5091715;28;20183;-59
2021/12/20 02:44:32;;;;;;;18.83;9.73;;;3.80;99.90;;;;;;5091825;28;20195;-59
2021/12/20 02:49:27;;;;;;;23.23;10.45;;;3.80;99.90;;;;;;5091874;28;20180;-59
2021/12/20 02:52:00;;;;;;;20.60;10.60;;;3.80;99.90;;;;;;5091160;28;20259;-59
2021/12/20 02:54:25;;;;;;;21.35;10.88;;;3.80;99.90;;;;;;5091654;28;20520;-59
2021/12/20 02:56:51;;;;;;;22.85;10.07;;;3.80;99.90;;;;;;5091566;28;20345;-59
2021/12/20 02:59:18;;;;;;;23.73;10.63;;;3.80;99.90;;;;;;5091644;28;20256;-59
2021/12/20 03:01:48;;;;;;;24.80;10.55;;;3.70;99.90;;;;;;5091653;28;20654;-58
2021/12/20 03:04:14;;;;;;;22.08;10.68;;;3.70;99.90;;;;;;5091489;28;20188;-59
2021/12/20 03:06:43;;;;;;;25.45;10.85;;;3.70;99.90;;;;;;5091437;28;20603;-59
2021/12/20 03:09:14;;;;;;;22.05;10.85;;;3.70;99.90;;;;;;5091598;28;20213;-59
2021/12/20 03:11:41;;;;;;;25.25;10.90;;;3.70;99.90;;;;;;5091682;28;20643;-59
2021/12/20 03:14:12;;;;;;;21.25;10.10;;;3.70;99.90;;;;;;5091892;28;20187;-60
2021/12/20 03:16:38;;;;;;;21.85;10.80;;;3.70;99.90;;;;;;5091115;28;20184;-59
2021/12/20 03:19:04;;;;;;;22.58;10.23;;;3.70;99.90;;;;;;5091311;28;20211;-59
2021/12/20 03:21:30;;;;;;;19.63;10.38;;;3.70;99.90;;;;;;5091215;28;20180;-59
2021/12/20 03:23:56;;;;;;;24.67;10.25;;;3.70;99.90;;;;;;5090835;28;20184;-59
2021/12/20 03:26:22;;;;;;;19.83;9.55;;;3.70;99.90;;;;;;5091066;28;20176;-59
2021/12/20 03:28:47;;;;;;;19.05;9.65;;;3.70;99.90;;;;;;5091413;28;20176;-59
2021/12/20 03:31:13;;;;;;;18.60;10.38;;;3.70;99.90;;;;;;5090922;28;20207;-59
2021/12/20 03:33:39;;;;;;;21.75;10.45;;;3.70;99.90;;;;;;5091197;28;20180;-59
2021/12/20 03:36:05;;;;;;;21.85;10.13;;;3.70;99.90;;;;;;5091451;28;20183;-59
2021/12/20 03:38:30;;;;;;;21.23;10.27;;;3.70;99.90;;;;;;5091294;28;20302;-59
2021/12/20 03:40:56;;;;;;;20.83;10.48;;;3.70;99.90;;;;;;5091154;28;20180;-59
2021/12/20 03:43:24;;;;;;;22.38;10.63;;;3.80;99.90;;;;;;5090848;28;20613;-59
2021/12/20 03:45:56;;;;;;;21.40;10.02;;;3.80;99.90;;;;;;5090842;28;20188;-59
2021/12/20 03:48:22;;;;;;;22.70;10.70;;;3.80;99.90;;;;;;5091088;28;20543;-59
2021/12/20 03:50:47;;;;;;;20.95;10.45;;;3.80;99.90;;;;;;5091067;28;20176;-59
2021/12/20 03:53:13;;;;;;;21.27;11.20;;;3.80;99.90;;;;;;5090952;28;20180;-59
2021/12/20 03:55:38;;;;;;;19.23;9.27;;;3.80;99.90;;;;;;5091309;28;20266;-59
2021/12/20 03:58:04;;;;;;;21.15;10.25;;;3.80;99.90;;;;;;5090648;28;20752;-59
2021/12/20 04:00:30;;;;;;;22.52;10.48;;;3.80;99.90;;;;;;5089656;28;20184;-59
2021/12/20 04:02:55;;;;;;;24.25;10.52;;;3.80;99.90;;;;;;5091061;28;20168;-59
2021/12/20 04:05:21;;;;;;;23.55;11.15;;;3.80;99.90;;;;;;5090863;28;20677;-59
2021/12/20 04:07:46;;;;;;;24.67;10.85;;;3.80;99.90;;;;;;5091816;28;20643;-59
2021/12/20 04:10:12;;;;;;;25.20;10.90;;;3.80;99.90;;;;;;5095041;28;20179;-59
2021/12/20 04:12:38;;;;;;;21.83;10.50;;;3.80;99.90;;;;;;5095235;28;20234;-59
2021/12/20 04:15:05;;;;;;;23.02;10.52;;;3.80;99.90;;;;;;5094161;28;20177;-59
2021/12/20 04:17:31;;;;;;;19.13;9.65;;;3.80;99.90;;;;;;5094510;28;20191;-59
2021/12/20 04:19:57;;;;;;;21.23;9.75;;;3.80;99.90;;;;;;5094766;28;20183;-59
2021/12/20 04:22:22;;;;;;;21.27;9.88;;;3.80;99.90;;;;;;5094484;28;20172;-59
2021/12/20 04:24:48;;;;;;;23.40;9.48;;;3.70;99.90;;;;;;5094916;28;20171;-58
2021/12/20 04:27:14;;;;;;;19.30;9.65;;;3.70;99.90;;;;;;5094651;28;20574;-58
2021/12/20 04:29:39;;;;;;;20.00;9.45;;;3.70;99.90;;;;;;5094558;28;20176;-58
2021/12/20 04:32:05;;;;;;;20.08;9.52;;;3.70;99.90;;;;;;5094388;28;20198;-58
2021/12/20 04:34:31;;;;;;;17.75;9.15;;;3.70;99.90;;;;;;5094582;28;20229;-58
2021/12/20 04:36:57;;;;;;;19.88;9.05;;;3.70;99.90;;;;;;5094310;28;20176;-58
2021/12/20 04:39:27;;;;;;;17.80;9.45;;;3.70;99.90;;;;;;5094419;28;20211;-58
2021/12/20 04:41:53;;;;;;;21.90;9.27;;;3.70;99.90;;;;;;5094622;28;20182;-59
2021/12/20 04:44:18;;;;;;;19.85;9.50;;;3.70;99.90;;;;;;5093692;28;20179;-59
2021/12/20 04:46:44;;;;;;;19.25;9.10;;;3.80;99.90;;;;;;5094441;28;20180;-59
2021/12/20 04:49:09;;;;;;;19.13;9.65;;;3.80;99.90;;;;;;5094377;28;20180;-60
2021/12/20 04:51:35;;;;;;;24.20;10.05;;;3.70;99.90;;;;;;5094511;28;20212;-59
2021/12/20 04:54:01;;;;;;;19.38;10.00;;;3.80;99.90;;;;;;5094458;28;20625;-59
2021/12/20 04:56:26;;;;;;;19.25;10.10;;;3.70;99.90;;;;;;5093568;28;20188;-60
2021/12/20 04:58:52;;;;;;;22.65;10.90;;;3.80;99.90;;;;;;5093962;28;20203;-61
2021/12/20 05:01:18;;;;;;;21.80;10.63;;;3.90;99.90;;;;;;5093700;28;20168;-59
2021/12/20 05:03:43;;;;;;;23.38;10.52;;;3.90;99.90;;;;;;5092883;28;20180;-61
2021/12/20 05:06:09;;;;;;;23.15;11.60;;;3.90;99.90;;;;;;5093844;28;20745;-61
2021/12/20 05:08:45;;;;;;;33.35;16.75;;;3.90;99.90;;;;;;5093880;28;20184;-62
2021/12/20 05:11:10;;;;;;;46.70;19.38;;;3.90;99.90;;;;;;5093867;28;20254;-61
2021/12/20 05:13:36;;;;;;;46.28;20.17;;;3.80;99.90;;;;;;5092704;28;20310;-61
2021/12/20 05:16:02;;;;;;;35.42;16.42;;;3.80;99.90;;;;;;5093631;28;20191;-67
2021/12/20 05:18:27;;;;;;;27.85;13.18;;;3.70;99.90;;;;;;5093100;28;20219;-63
2021/12/20 05:20:53;;;;;;;27.55;12.75;;;3.60;99.90;;;;;;5093267;28;20535;-63
2021/12/20 05:23:18;;;;;;;23.55;11.90;;;3.60;99.90;;;;;;5093695;28;20179;-62
2021/12/20 05:25:44;;;;;;;25.15;11.73;;;3.60;99.90;;;;;;5093274;28;20245;-64
2021/12/20 05:28:09;;;;;;;24.25;11.68;;;3.70;99.90;;;;;;5093594;28;20179;-64
2021/12/20 05:30:37;;;;;;;23.63;10.80;;;3.60;99.90;;;;;;5092843;28;20718;-64
2021/12/20 05:33:02;;;;;;;21.52;10.55;;;3.60;99.90;;;;;;5093359;28;20176;-61
2021/12/20 05:35:28;;;;;;;20.45;10.00;;;3.60;99.90;;;;;;5092758;28;20184;-60
2021/12/20 05:37:53;;;;;;;22.25;10.38;;;3.60;99.90;;;;;;5092934;28;20208;-60
2021/12/20 05:40:20;;;;;;;21.70;10.68;;;3.60;99.90;;;;;;5093640;28;20195;-60
2021/12/20 05:42:46;;;;;;;19.83;10.10;;;3.70;99.90;;;;;;5093777;28;20595;-60
2021/12/20 05:45:27;;;;;;;19.13;10.13;;;3.70;99.90;;;;;;5093715;28;20237;-60
2021/12/20 05:47:52;;;;;;;19.98;9.85;;;3.70;99.90;;;;;;5093638;28;20183;-60
2021/12/20 05:50:20;;;;;;;18.65;9.73;;;3.70;99.90;;;;;;5093487;28;20176;-60
2021/12/20 05:52:46;;;;;;;20.08;9.38;;;3.70;99.90;;;;;;5093511;28;20668;-60
2021/12/20 05:55:13;;;;;;;20.83;9.65;;;3.70;99.90;;;;;;5093173;28;20168;-61
2021/12/20 05:57:39;;;;;;;21.80;10.68;;;3.60;99.90;;;;;;5093347;28;20327;-60
2021/12/20 06:00:08;;;;;;;22.00;9.80;;;3.60;99.90;;;;;;5093324;28;20662;-60
2021/12/20 06:02:33;;;;;;;21.30;10.48;;;3.60;99.90;;;;;;5091935;28;20196;-60
2021/12/20 06:04:59;;;;;;;20.80;9.05;;;3.60;99.90;;;;;;5093397;28;20588;-60
2021/12/20 06:07:25;;;;;;;18.42;9.10;;;3.60;99.90;;;;;;5093107;28;20650;-60
2021/12/20 06:09:50;;;;;;;19.35;9.88;;;3.60;99.90;;;;;;5093173;28;20187;-60
2021/12/20 06:12:16;;;;;;;20.80;10.35;;;3.60;99.90;;;;;;5093114;28;20204;-60
2021/12/20 06:14:41;;;;;;;22.65;10.43;;;3.60;99.90;;;;;;5093123;28;20211;-60
2021/12/20 06:17:07;;;;;;;19.88;9.63;;;3.60;99.90;;;;;;5093067;28;20521;-60
2021/12/20 06:19:33;;;;;;;21.30;10.07;;;3.60;99.90;;;;;;5092832;28;20219;-60
2021/12/20 06:21:59;;;;;;;24.50;13.23;;;3.60;99.90;;;;;;5093106;28;20527;-60
2021/12/20 06:24:26;;;;;;;23.80;11.38;;;3.60;99.90;;;;;;5092870;28;20244;-60
2021/12/20 06:26:52;;;;;;;23.65;11.98;;;3.60;99.90;;;;;;5092967;28;20172;-60
2021/12/20 06:29:19;;;;;;;23.95;10.82;;;3.60;99.90;;;;;;5092785;28;20661;-60
2021/12/20 06:31:45;;;;;;;20.50;9.57;;;3.50;99.90;;;;;;5092555;28;20662;-60
2021/12/20 06:34:10;;;;;;;22.67;10.43;;;3.50;99.90;;;;;;5092650;28;20180;-61
2021/12/20 06:36:37;;;;;;;17.58;9.55;;;3.50;99.90;;;;;;5092654;28;20200;-60
2021/12/20 06:39:05;;;;;;;20.35;9.75;;;3.50;99.90;;;;;;5092730;28;20212;-60
2021/12/20 06:41:30;;;;;;;18.45;9.10;;;3.50;99.90;;;;;;5092598;28;20176;-60
2021/12/20 06:43:56;;;;;;;21.30;10.13;;;3.50;99.90;;;;;;5092637;28;20183;-60
2021/12/20 06:46:23;;;;;;;18.25;9.10;;;3.50;99.90;;;;;;5092465;28;20221;-60
2021/12/20 06:48:49;;;;;;;19.55;9.27;;;3.50;99.90;;;;;;5092539;28;20180;-60
2021/12/20 06:51:14;;;;;;;20.48;9.93;;;3.40;99.90;;;;;;5092533;28;20748;-60
2021/12/20 06:53:40;;;;;;;20.63;10.35;;;3.40;99.90;;;;;;5092548;28;20172;-60
2021/12/20 06:56:05;;;;;;;23.27;11.55;;;3.40;99.90;;;;;;5092285;28;20172;-60
2021/12/20 06:58:31;;;;;;;20.75;10.98;;;3.40;99.90;;;;;;5091980;28;20579;-60
2021/12/20 07:00:56;;;;;;;20.40;10.15;;;3.40;99.90;;;;;;5092366;28;20263;-60
2021/12/20 07:03:22;;;;;;;21.60;10.60;;;3.40;99.90;;;;;;5092157;28;20177;-60
2021/12/20 07:05:48;;;;;;;20.13;10.70;;;3.40;99.90;;;;;;5092311;28;20195;-60
2021/12/20 07:08:14;;;;;;;25.38;11.15;;;3.40;99.90;;;;;;5092066;28;20688;-60
2021/12/20 07:10:40;;;;;;;27.65;12.13;;;3.50;99.90;;;;;;5092346;28;20236;-60
2021/12/20 07:13:08;;;;;;;25.30;12.20;;;3.50;99.90;;;;;;5092120;28;20184;-60
2021/12/20 07:15:34;;;;;;;23.95;11.07;;;3.50;99.90;;;;;;5092011;28;20180;-60
2021/12/20 07:17:59;;;;;;;22.92;10.80;;;3.50;99.90;;;;;;5092138;28;20211;-60
2021/12/20 07:20:25;;;;;;;23.38;10.95;;;3.50;99.90;;;;;;5092030;28;20180;-60
2021/12/20 07:22:51;;;;;;;20.85;10.80;;;3.50;99.90;;;;;;5091900;28;20241;-60
2021/12/20 07:25:18;;;;;;;19.70;9.77;;;3.50;99.90;;;;;;5091956;28;20179;-60
2021/12/20 07:27:46;;;;;;;17.58;9.57;;;3.50;99.90;;;;;;5091845;28;20180;-60
2021/12/20 07:30:11;;;;;;;20.55;9.05;;;3.50;99.90;;;;;;5091887;28;20179;-60
2021/12/20 07:32:37;;;;;;;20.20;10.38;;;3.50;99.90;;;;;;5091829;28;20168;-60
2021/12/20 07:35:03;;;;;;;20.55;10.45;;;3.60;99.90;;;;;;5091999;28;20650;-60
2021/12/20 07:37:28;;;;;;;19.45;9.88;;;3.50;99.90;;;;;;5091767;28;20172;-60
2021/12/20 07:39:54;;;;;;;24.55;10.20;;;3.50;99.90;;;;;;5091936;28;20184;-60
2021/12/20 07:42:20;;;;;;;21.15;10.10;;;3.50;99.90;;;;;;5092205;28;20237;-60
2021/12/20 07:44:47;;;;;;;20.77;10.43;;;3.50;99.90;;;;;;5096092;28;20175;-60
2021/12/20 07:47:12;;;;;;;18.35;9.60;;;3.50;99.90;;;;;;5095900;28;20195;-60
2021/12/20 07:49:38;;;;;;;22.65;10.70;;;3.60;99.90;;;;;;5095874;28;20191;-60
2021/12/20 07:52:04;;;;;;;23.02;10.50;;;3.50;99.90;;;;;;5095953;28;20250;-60
2021/12/20 07:54:30;;;;;;;20.40;10.20;;;3.60;99.90;;;;;;5095735;28;20190;-60
2021/12/20 07:56:56;;;;;;;20.50;9.68;;;3.60;99.90;;;;;;5095607;28;20694;-60
2021/12/20 07:59:21;;;;;;;21.42;10.40;;;3.60;99.90;;;;;;5095648;28;20226;-60
2021/12/20 08:01:48;;;;;;;22.10;10.40;;;3.60;99.90;;;;;;5095840;28;20647;-60
2021/12/20 08:04:15;;;;;;;22.45;10.98;;;3.70;99.90;;;;;;5095568;28;20549;-60
2021/12/20 08:06:42;;;;;;;23.52;10.98;;;3.70;99.90;;;;;;5095718;28;20187;-60
2021/12/20 08:09:10;;;;;;;24.60;11.30;;;3.70;99.90;;;;;;5095541;28;20210;-60
2021/12/20 08:11:36;;;;;;;23.65;12.73;;;3.80;99.90;;;;;;5095515;28;20180;-60
2021/12/20 08:14:02;;;;;;;23.77;12.32;;;3.80;99.90;;;;;;5095580;28;20239;-60
2021/12/20 08:16:28;;;;;;;25.45;12.20;;;3.90;99.90;;;;;;5095337;28;20639;-60
2021/12/20 08:18:53;;;;;;;24.20;12.65;;;3.90;99.90;;;;;;5095401;28;20216;-60
2021/12/20 08:21:19;;;;;;;24.33;11.82;;;3.90;99.90;;;;;;5095244;28;20229;-60
2021/12/20 08:23:45;;;;;;;26.17;12.30;;;4.00;99.90;;;;;;5095422;28;20177;-60
2021/12/20 08:26:11;;;;;;;23.38;11.27;;;4.00;99.90;;;;;;5095050;28;20176;-60
2021/12/20 08:28:37;;;;;;;21.10;11.50;;;4.00;99.90;;;;;;5095239;28;20174;-60
2021/12/20 08:31:04;;;;;;;22.70;11.13;;;4.00;99.90;;;;;;5095239;28;20288;-60
2021/12/20 08:33:29;;;;;;;24.15;12.75;;;4.10;99.90;;;;;;5094904;28;20179;-60
2021/12/20 08:35:55;;;;;;;23.25;12.35;;;4.10;99.90;;;;;;5095120;28;20574;-60
2021/12/20 08:38:21;;;;;;;28.40;14.40;;;4.10;99.90;;;;;;5094837;28;20211;-60
2021/12/20 08:40:47;;;;;;;29.90;15.15;;;4.10;99.90;;;;;;5094806;28;20650;-60
2021/12/20 08:43:14;;;;;;;27.48;13.95;;;4.10;99.90;;;;;;5094954;28;20179;-60
2021/12/20 08:45:40;;;;;;;24.10;13.27;;;4.20;99.90;;;;;;5094945;28;20191;-60
2021/12/20 08:48:06;;;;;;;25.42;12.63;;;4.20;99.90;;;;;;5094866;28;20726;-60
2021/12/20 08:50:32;;;;;;;24.10;12.73;;;4.30;99.90;;;;;;5094701;28;20180;-60
2021/12/20 08:52:57;;;;;;;23.73;12.38;;;4.40;99.90;;;;;;5094841;28;20172;-60
2021/12/20 08:55:23;;;;;;;23.13;10.93;;;4.40;99.90;;;;;;5094346;28;20581;-60
2021/12/20 08:57:50;;;;;;;21.55;10.98;;;4.40;99.90;;;;;;5094295;28;20672;-60
2021/12/20 09:00:25;;;;;;;22.00;11.02;;;4.50;99.90;;;;;;5094516;28;20176;-60
2021/12/20 09:02:51;;;;;;;22.67;11.10;;;4.50;99.90;;;;;;5094555;28;20558;-60
2021/12/20 09:05:17;;;;;;;22.60;11.05;;;4.60;99.90;;;;;;5094476;28;20187;-60
2021/12/20 09:07:43;;;;;;;20.30;10.57;;;4.70;99.90;;;;;;5094479;28;20207;-60
2021/12/20 09:10:11;;;;;;;20.25;10.38;;;4.70;99.90;;;;;;5094210;28;20628;-61
2021/12/20 09:12:37;;;;;;;23.90;13.00;;;4.80;99.90;;;;;;5094427;28;20749;-60
2021/12/20 09:15:04;;;;;;;22.85;12.95;;;4.80;99.90;;;;;;5094462;28;20631;-60
2021/12/20 09:17:30;;;;;;;22.10;11.23;;;4.90;99.90;;;;;;5094126;28;20237;-60
2021/12/20 09:19:55;;;;;;;19.17;10.50;;;5.00;99.90;;;;;;5092988;28;20643;-60
2021/12/20 09:22:26;;;;;;;19.77;9.98;;;5.00;99.90;;;;;;5094139;28;20176;-60
2021/12/20 09:24:52;;;;;;;22.13;10.75;;;5.10;99.90;;;;;;5094065;28;20639;-60
2021/12/20 09:27:18;;;;;;;29.00;13.02;;;5.20;99.90;;;;;;5093954;28;20176;-60
2021/12/20 09:29:43;;;;;;;23.25;11.70;;;5.30;99.90;;;;;;5094105;28;20173;-60
2021/12/20 09:32:09;;;;;;;19.83;10.80;;;5.40;99.90;;;;;;5093924;28;20172;-60
2021/12/20 09:34:35;;;;;;;24.27;12.00;;;5.40;99.90;;;;;;5093984;28;20179;-60
2021/12/20 09:37:05;;;;;;;20.00;11.05;;;5.50;99.90;;;;;;5094009;28;20236;-60
2021/12/20 09:39:32;;;;;;;21.70;10.93;;;5.50;99.90;;;;;;5093542;28;20246;-61
2021/12/20 09:42:00;;;;;;;20.42;10.45;;;5.60;99.90;;;;;;5093891;28;20527;-60
2021/12/20 09:44:26;;;;;;;22.77;10.80;;;5.60;99.90;;;;;;5093729;28;20172;-60
2021/12/20 09:46:55;;;;;;;20.38;10.15;;;5.70;99.90;;;;;;5093624;28;20198;-60
2021/12/20 09:49:21;;;;;;;21.17;10.02;;;5.70;99.90;;;;;;5093528;28;20172;-60
2021/12/20 09:51:47;;;;;;;20.50;11.15;;;5.70;99.90;;;;;;5093609;28;20180;-60
2021/12/20 09:54:13;;;;;;;19.90;10.95;;;5.70;99.90;;;;;;5093299;28;20176;-61
2021/12/20 09:56:40;;;;;;;19.90;10.02;;;5.80;99.90;;;;;;5093282;28;20655;-60
2021/12/20 09:59:10;;;;;;;20.08;10.32;;;5.80;99.90;;;;;;5093388;28;20729;-60
2021/12/20 10:01:35;;;;;;;18.73;10.13;;;5.80;99.90;;;;;;5093379;28;20643;-60
2021/12/20 10:04:03;;;;;;;20.15;10.27;;;5.80;99.90;;;;;;5093359;28;20275;-60
2021/12/20 10:06:30;;;;;;;19.73;10.32;;;5.80;99.90;;;;;;5091434;28;20176;-60
2021/12/20 10:09:00;;;;;;;18.95;9.90;;;5.80;99.90;;;;;;5093264;28;20223;-60
2021/12/20 10:11:29;;;;;;;26.60;12.23;;;5.80;99.90;;;;;;5093165;28;20172;-59
2021/12/20 10:14:16;;;;;;;31.70;16.30;;;5.80;99.90;;;;;;5093591;28;20169;-59
2021/12/20 10:16:43;;;;;;;30.48;15.48;;;5.80;99.90;;;;;;5093090;28;20184;-59
2021/12/20 10:19:30;;;;;;;25.77;13.38;;;5.70;99.90;;;;;;5092960;28;20211;-59
2021/12/20 10:21:58;;;;;;;26.33;12.82;;;5.60;99.90;;;;;;5092953;28;20176;-59
2021/12/20 10:24:35;;;;;;;33.83;15.02;;;5.50;99.90;;;;;;5092908;28;20208;-59
2021/12/20 10:27:02;;;;;;;25.48;11.68;;;5.50;99.90;;;;;;5092834;28;20255;-59
2021/12/20 10:29:28;;;;;;;23.10;11.27;;;5.40;99.90;;;;;;5092781;28;20647;-59
2021/12/20 10:31:56;;;;;;;26.30;12.80;;;5.40;99.90;;;;;;5092883;28;20208;-59
2021/12/20 10:34:33;;;;;;;26.75;10.65;;;5.30;99.90;;;;;;5092728;28;20666;-58
2021/12/20 10:37:01;;;;;;;23.95;11.25;;;5.30;99.90;;;;;;5092817;28;20172;-59
2021/12/20 10:39:43;;;;;;;20.48;10.70;;;5.20;99.90;;;;;;5092444;28;20212;-59
2021/12/20 10:42:14;;;;;;;21.20;9.52;;;5.20;99.90;;;;;;5092630;28;20631;-59
2021/12/20 10:44:39;;;;;;;25.73;11.18;;;5.10;99.90;;;;;;5092587;28;20631;-59
2021/12/20 10:47:06;;;;;;;22.92;10.63;;;5.10;99.90;;;;;;5092638;28;20178;-59
2021/12/20 10:49:31;;;;;;;23.80;10.75;;;5.10;99.90;;;;;;5092415;28;20175;-59
2021/12/20 10:51:58;;;;;;;19.58;9.43;;;5.20;99.90;;;;;;5092576;28;20247;-59
2021/12/20 10:54:30;;;;;;;21.05;9.00;;;5.20;99.90;;;;;;5092346;28;20180;-59
2021/12/20 10:56:58;;;;;;;17.98;9.18;;;5.20;99.90;;;;;;5092213;28;20266;-59
2021/12/20 10:59:28;;;;;;;22.73;9.55;;;5.20;99.90;;;;;;5092319;28;20210;-59
2021/12/20 11:04:48;;;;;;;22.20;8.52;;;5.10;99.90;;;;;;5092354;28;20237;-59
2021/12/20 11:10:07;;;;;;;20.27;8.68;;;5.20;99.90;;;;;;5092401;28;20168;-59
2021/12/20 11:12:34;;;;;;;18.77;8.73;;;5.20;99.90;;;;;;5092144;28;20182;-59
2021/12/20 11:15:07;;;;;;;20.73;8.90;;;5.20;99.90;;;;;;5092187;28;20221;-59
2021/12/20 11:17:33;;;;;;;19.85;8.32;;;5.20;99.90;;;;;;5091059;28;20188;-59
2021/12/20 11:19:59;;;;;;;21.10;8.18;;;5.20;99.90;;;;;;5092044;28;20679;-59
2021/12/20 11:22:30;;;;;;;19.40;7.80;;;5.20;99.90;;;;;;5092088;28;20225;-59
2021/12/20 11:25:03;;;;;;;18.98;8.35;;;5.10;99.90;;;;;;5092124;28;20275;-59
2021/12/20 11:27:35;;;;;;;19.13;8.70;;;5.10;99.90;;;;;;5091759;28;20666;-59
2021/12/20 11:30:08;;;;;;;16.13;8.65;;;5.10;99.90;;;;;;5092103;28;20164;-59
2021/12/20 11:32:34;;;;;;;20.98;8.65;;;5.10;99.90;;;;;;5091929;28;20627;-59
2021/12/20 11:35:00;;;;;;;18.30;8.48;;;5.10;99.90;;;;;;5092012;28;20172;-59
2021/12/20 11:37:27;;;;;;;22.92;8.68;;;5.20;99.90;;;;;;5091801;28;20706;-59
2021/12/20 11:39:55;;;;;;;22.45;8.73;;;5.10;99.90;;;;;;5091898;28;20215;-58
2021/12/20 11:42:21;;;;;;;16.80;8.30;;;5.20;99.90;;;;;;5091949;28;20818;-59
2021/12/20 11:44:49;;;;;;;22.27;8.30;;;5.30;99.90;;;;;;5091819;28;20279;-59
2021/12/20 11:47:26;;;;;;;19.65;8.25;;;5.30;99.90;;;;;;5091683;28;20211;-59
2021/12/20 11:50:19;;;;;;;15.95;7.68;;;5.30;99.90;;;;;;5091733;28;20275;-58
2021/12/20 11:52:48;;;;;;;18.35;7.80;;;5.30;99.90;;;;;;5091868;28;20172;-58
2021/12/20 11:55:27;;;;;;;17.15;7.95;;;5.30;99.90;;;;;;5091538;28;20722;-59
2021/12/20 11:57:55;;;;;;;21.00;7.50;;;5.30;99.90;;;;;;5091598;28;20228;-58
2021/12/20 12:00:31;;;;;;;21.25;8.48;;;5.30;99.90;;;;;;5091602;28;20187;-59
2021/12/20 12:03:00;;;;;;;22.20;8.70;;;5.30;99.90;;;;;;5091748;28;20168;-59
2021/12/20 12:05:37;;;;;;;16.20;7.40;;;5.40;99.90;;;;;;5091593;28;20198;-59
2021/12/20 12:08:36;;;;;;;18.33;8.63;;;5.30;99.90;;;;;;5091841;28;20187;-59
2021/12/20 12:11:04;;;;;;;14.60;8.02;;;5.30;99.90;;;;;;5091717;28;20168;-59
2021/12/20 12:13:58;;;;;;;20.52;8.38;;;5.40;99.90;;;;;;5090142;28;20176;-59
2021/12/20 12:17:05;;;;;;;20.70;7.97;;;5.40;99.90;;;;;;5083785;28;20188;-58
2021/12/20 12:19:49;;;;;;;16.30;7.38;;;5.40;99.90;;;;;;5091240;28;20226;-59
2021/12/20 12:22:33;;;;;;;16.75;7.40;;;5.50;99.90;;;;;;5091418;28;20176;-59
2021/12/20 12:24:59;;;;;;;17.15;6.95;;;5.50;99.90;;;;;;5091589;28;20184;-61
2021/12/20 12:27:25;;;;;;;15.18;6.90;;;5.50;99.90;;;;;;5091270;28;20176;-62
2021/12/20 12:30:16;;;;;;;15.57;7.45;;;5.50;99.90;;;;;;5094090;28;20253;-61
2021/12/20 12:32:44;;;;;;;15.38;7.97;;;5.60;99.90;;;;;;5095226;28;20179;-60
2021/12/20 12:35:51;;;;;;;18.02;7.70;;;5.70;99.90;;;;;;5095135;28;20176;-61
2021/12/20 12:38:34;;;;;;;18.58;6.80;;;5.80;99.90;;;;;;5095051;28;20266;-60
2021/12/20 12:41:06;;;;;;;15.35;6.25;;;5.80;99.90;;;;;;5095138;28;20245;-60
2021/12/20 12:43:47;;;;;;;17.17;6.78;;;5.90;99.90;;;;;;5094730;28;20164;-60
2021/12/20 12:46:12;;;;;;;15.68;6.10;;;5.90;99.90;;;;;;5094788;28;20744;-61
2021/12/20 12:48:39;;;;;;;16.67;6.80;;;5.80;99.90;;;;;;5094861;28;20188;-60
2021/12/20 12:51:19;;;;;;;15.70;6.97;;;5.80;99.90;;;;;;5094889;28;20182;-60
2021/12/20 12:53:48;;;;;;;13.95;6.38;;;5.90;99.90;;;;;;5094908;28;20172;-60
2021/12/20 12:56:29;;;;;;;18.58;6.93;;;5.80;99.90;;;;;;5094332;28;20555;-62
2021/12/20 12:59:14;;;;;;;16.88;6.90;;;5.90;99.90;;;;;;5094632;28;20208;-60
2021/12/20 13:01:57;;;;;;;13.88;6.07;;;5.90;99.90;;;;;;5094772;28;20180;-60